Domov               UVHVVR             MKGP            O straneh              
ZDRAVSTVENO VARSTVO RASTLIN
  MREŽA AGROMET. POSTAJ
 ► PROGNOSTIČNA OBVESTILA
AGROMETEOROLOŠKI PODATKI -
ARSO
OBVLADOVANJE TVEGANJ ZARADI
NEUGODNIH VREMENSKIH RAZMER
  ► NARAVNE NESREČE
  ► SUŠA/MOČA
  ► NAMAKANJE
  ► ŽLED (gozdarstvo)
KARTOGRAFSKI PRIKAZI
SPLETNE POVEZAVE
PROJEKTI IN PUBLIKACIJE

AGROMETEOROLOŠKA MREŽA: VREMENSKE POSTAJE IN FENOLOŠKA OPAZOVANJA

Pregled podatkov za lokacijo Zavrhek, meteorološka postaja 37907

Pregled senzorjev na lokaciji

ID Ime Zadnja
vrednost
Datum
zadnje
spremembe
Tip
senzorja
1989 Temperatura 2 m ( °C) 9,18 °C 24.8.2017 04:30 50YA
1990 Relativna vlaga 2 m (% RH) 99,93 % RH 24.8.2017 04:30 50YA
1991 Padavine 0.2 mm (mm) 0 mm 24.8.2017 04:30 Rain-O-Matic

Pregled podatkov zadnjih 24 ur

Zap.
št.
Datum in čas Zavrhek
Padavine
0.2
mm
Relativna
vlaga
2
m
Temperatura
2
m
0 24.8.2017 03:30 0 99,93 9,18
1 24.8.2017 03:00 0 99,93 9,3
2 24.8.2017 02:30 0 99,93 9,47
3 24.8.2017 02:00 0 99,93 9,55
4 24.8.2017 01:30 0 99,93 9,69
5 24.8.2017 01:00 0 99,93 9,77
6 24.8.2017 00:30 0 99,93 10,13
7 24.8.2017 00:00 0 99,93 10,35
8 23.8.2017 23:30 0 99,93 10,62
9 23.8.2017 23:00 0 99,9 10,79
10 23.8.2017 22:30 0 99,34 11,23
11 23.8.2017 22:00 0 97,63 11,53
12 23.8.2017 21:30 0 96,56 12,04
13 23.8.2017 21:00 0 94,87 12,58
14 23.8.2017 20:30 0 93,09 13,26
15 23.8.2017 20:00 0 90,99 14,19
16 23.8.2017 19:30 0 86,98 15,41
17 23.8.2017 19:00 0 80,1 17,02
18 23.8.2017 18:30 0 70,16 18,93
19 23.8.2017 18:00 0 55,78 21,76
20 23.8.2017 17:30 0 46,72 23,25
21 23.8.2017 17:00 0 44,59 24,05
22 23.8.2017 16:30 0 40,61 24,81
23 23.8.2017 16:00 0 37,73 25,35
24 23.8.2017 15:30 0 38,88 25,52
25 23.8.2017 15:00 0 39,93 26,08
26 23.8.2017 14:30 0 37,53 27,13
27 23.8.2017 14:00 0 35,56 27,16
28 23.8.2017 13:30 0 32,82 27,06
29 23.8.2017 13:00 0 33,02 27,23
30 23.8.2017 12:30 0 36,14 26,23
31 23.8.2017 12:00 0 35,7 26,03
32 23.8.2017 11:30 0 38,29 25,15
33 23.8.2017 11:00 0 40,95 24,15
34 23.8.2017 10:30 0 45,32 22,86
35 23.8.2017 10:00 0 48,57 21,59
36 23.8.2017 09:30 0 48,11 21,34
37 23.8.2017 09:00 0 55,29 20,39
38 23.8.2017 08:30 0 66,86 18,24
39 23.8.2017 08:00 0 72,67 16,24
40 23.8.2017 07:30 0 83,22 12,99
41 23.8.2017 07:00 0 93,02 10,65
42 23.8.2017 06:30 0 96,83 10,21
43 23.8.2017 06:00 0 99,88 8,77
44 23.8.2017 05:30 0 98,53 8,57
© 2011 Ministrstvo za kmetijstvo, gozdarstvo in prehrano. Vse pravice pridržane.